Time;durP1;ratioP1;P1;durP2;ratioP2;P2;SDS_P1;SDS_P2;PMS_P1;PMS_P2;Temp;Humidity;BMP_temperature;BMP_pressure;BME280_temperature;BME280_humidity;BME280_pressure;Samples;Min_cycle;Max_cycle;Signal;HPM_P1;HPM_P2
2023/07/11 00:00:25;;;;;;;0.30;0.30;;;;;;;22.47;47.01;97138.31;29396;248;63005;-53
2023/07/11 00:00:58;;;;;;;0.30;0.30;;;;;;;22.46;47.07;97136.72;29396;306;63009;-53
2023/07/11 00:01:29;;;;;;;0.30;0.30;;;;;;;22.46;47.07;97136.72;29396;273;63004;-53
2023/07/11 00:02:01;;;;;;;0.30;0.30;;;;;;;22.45;47.29;97137.88;29396;243;63009;-53
2023/07/11 00:02:32;;;;;;;0.30;0.30;;;;;;;22.44;47.12;97133.50;29396;214;63017;-53
2023/07/11 00:03:04;;;;;;;0.30;0.30;;;;;;;22.42;47.21;97130.31;29395;223;64013;-53
2023/07/11 00:03:35;;;;;;;0.30;0.30;;;;;;;22.41;47.27;97128.72;29396;196;63004;-52
2023/07/11 00:04:07;;;;;;;0.30;0.30;;;;;;;22.40;47.20;97132.63;29396;223;63008;-52
2023/07/11 00:04:38;;;;;;;0.30;0.30;;;;;;;22.40;47.41;97135.41;29396;198;63005;-53
2023/07/11 00:05:12;;;;;;;0.30;0.30;;;;;;;22.38;47.47;97126.69;29396;221;63009;-53
2023/07/11 00:05:44;;;;;;;0.60;0.60;;;;;;;22.38;47.29;97126.69;29396;215;63010;-53
2023/07/11 00:06:18;;;;;;;0.30;0.30;;;;;;;22.36;47.68;97131.75;29396;242;63009;-53
2023/07/11 00:06:52;;;;;;;0.30;0.30;;;;;;;22.36;47.32;97137.28;29396;222;63008;-52
2023/07/11 00:07:24;;;;;;;0.30;0.30;;;;;;;22.35;47.38;97130.16;29396;197;63009;-53
2023/07/11 00:07:55;;;;;;;0.30;0.30;;;;;;;22.34;47.57;97131.31;29396;230;63012;-53
2023/07/11 00:08:27;;;;;;;0.30;0.30;;;;;;;22.33;47.45;97135.25;29395;264;64013;-53
2023/07/11 00:08:58;;;;;;;0.30;0.30;;;;;;;22.32;47.67;97130.88;29395;221;64009;-53
2023/07/11 00:09:30;;;;;;;0.30;0.30;;;;;;;22.31;47.54;97134.81;29396;209;63009;-62
2023/07/11 00:10:01;;;;;;;0.30;0.30;;;;;;;22.30;47.35;97128.47;29397;214;63010;-53
2023/07/11 00:10:32;;;;;;;0.30;0.30;;;;;;;22.30;47.45;97130.44;29396;202;64008;-52
2023/07/11 00:11:09;;;;;;;0.30;0.30;;;;;;;22.29;47.25;97131.59;29397;206;63004;-53
2023/07/11 00:11:40;;;;;;;0.30;0.30;;;;;;;22.27;47.47;97129.22;29397;204;63008;-53
2023/07/11 00:12:12;;;;;;;0.30;0.30;;;;;;;22.27;47.22;97131.97;29397;199;63005;-53
2023/07/11 00:12:43;;;;;;;0.68;0.68;;;;;;;22.27;47.55;97133.94;29397;197;63009;-53
2023/07/11 00:13:14;;;;;;;0.30;0.30;;;;;;;22.26;47.34;97126.81;29397;216;63005;-53
2023/07/11 00:13:49;;;;;;;0.30;0.30;;;;;;;22.26;47.55;97126.81;29397;219;63009;-52
2023/07/11 00:14:21;;;;;;;0.30;0.30;;;;;;;22.26;47.26;97132.34;29397;198;63009;-53
2023/07/11 00:14:52;;;;;;;0.30;0.30;;;;;;;22.24;47.16;97124.41;29397;263;63020;-53
2023/07/11 00:15:24;;;;;;;0.30;0.30;;;;;;;22.24;47.23;97118.06;29397;212;63004;-53
2023/07/11 00:16:02;;;;;;;0.30;0.30;;;;;;;22.24;47.50;97129.13;29397;216;63009;-53
2023/07/11 00:16:34;;;;;;;0.30;0.30;;;;;;;22.23;47.23;97114.50;29397;234;63010;-52
2023/07/11 00:17:06;;;;;;;0.30;0.30;;;;;;;22.24;47.53;97126.38;29397;289;63009;-53
2023/07/11 00:17:37;;;;;;;0.30;0.30;;;;;;;22.23;47.45;97113.72;29397;220;63004;-52
2023/07/11 00:18:09;;;;;;;0.30;0.30;;;;;;;22.23;47.07;97114.50;29397;223;63008;-53
2023/07/11 00:18:40;;;;;;;0.30;0.30;;;;;;;22.23;47.05;97117.28;29396;206;64009;-52
2023/07/11 00:19:12;;;;;;;0.30;0.30;;;;;;;22.23;46.99;97122.00;29397;212;63009;-54
2023/07/11 00:19:50;;;;;;;0.30;0.30;;;;;;;22.23;46.99;97122.00;29397;202;63005;-52
2023/07/11 00:20:22;;;;;;;0.30;0.30;;;;;;;22.23;47.13;97116.47;29396;198;64013;-52
2023/07/11 00:20:54;;;;;;;0.30;0.30;;;;;;;22.23;46.83;97116.47;29397;222;63018;-54
2023/07/11 00:21:25;;;;;;;0.30;0.30;;;;;;;22.23;47.20;97116.47;29397;261;63009;-54
2023/07/11 00:21:56;;;;;;;0.30;0.30;;;;;;;22.23;47.03;97116.47;29397;222;63005;-53
2023/07/11 00:22:29;;;;;;;0.30;0.30;;;;;;;22.23;47.21;97119.25;29397;267;63013;-53
2023/07/11 00:23:02;;;;;;;0.30;0.30;;;;;;;22.22;46.95;97115.66;29397;202;63004;-52
2023/07/11 00:23:33;;;;;;;0.30;0.30;;;;;;;22.22;47.15;97118.44;29396;252;63009;-53
2023/07/11 00:24:06;;;;;;;0.30;0.30;;;;;;;22.22;47.21;97112.09;29396;233;63008;-53
2023/07/11 00:24:37;;;;;;;0.30;0.30;;;;;;;22.21;47.37;97114.06;29396;224;63009;-53
2023/07/11 00:25:09;;;;;;;0.30;0.30;;;;;;;22.21;47.15;97121.56;29396;197;63004;-52
2023/07/11 00:25:41;;;;;;;0.30;0.30;;;;;;;22.21;47.20;97118.78;29395;206;64013;-52
2023/07/11 00:26:12;;;;;;;0.30;0.30;;;;;;;22.20;47.19;97123.53;29396;199;64009;-53
2023/07/11 00:26:43;;;;;;;0.30;0.30;;;;;;;22.20;47.29;97118.00;29395;229;64014;-52
2023/07/11 00:27:17;;;;;;;0.30;0.30;;;;;;;22.20;47.43;97114.44;29396;197;63005;-53
2023/07/11 00:27:49;;;;;;;0.30;0.30;;;;;;;22.19;47.58;97121.94;29395;224;64014;-52
2023/07/11 00:28:21;;;;;;;0.30;0.30;;;;;;;22.19;47.27;97115.59;29396;323;63005;-53
2023/07/11 00:28:52;;;;;;;0.30;0.30;;;;;;;22.19;47.46;97119.16;29396;211;63024;-53
2023/07/11 00:29:24;;;;;;;0.20;0.20;;;;;;;22.19;47.18;97121.94;29396;212;63005;-53
2023/07/11 00:29:55;;;;;;;0.30;0.30;;;;;;;22.20;47.10;97117.19;29396;197;63009;-53
2023/07/11 00:30:26;;;;;;;0.30;0.30;;;;;;;22.19;47.17;97121.94;29395;227;64009;-53
2023/07/11 00:30:58;;;;;;;0.30;0.30;;;;;;;22.19;47.13;97112.84;29396;199;64013;-53
2023/07/11 00:31:29;;;;;;;0.30;0.30;;;;;;;22.19;47.06;97116.41;29396;207;63004;-52
2023/07/11 00:32:00;;;;;;;0.30;0.30;;;;;;;22.19;47.01;97118.34;29396;227;63009;-53
2023/07/11 00:32:33;;;;;;;0.30;0.30;;;;;;;22.20;47.12;97117.19;29396;254;63004;-53
2023/07/11 00:33:04;;;;;;;0.28;0.28;;;;;;;22.19;47.05;97121.13;29395;218;64013;-54
2023/07/11 00:33:35;;;;;;;0.30;0.30;;;;;;;22.20;47.01;97111.66;29396;227;63004;-61
2023/07/11 00:34:07;;;;;;;0.20;0.20;;;;;;;22.20;47.07;97114.44;29396;207;63009;-52
2023/07/11 00:34:39;;;;;;;0.30;0.30;;;;;;;22.20;47.22;97106.94;29395;220;64009;-53
2023/07/11 00:35:11;;;;;;;0.30;0.30;;;;;;;22.21;47.25;97113.28;29396;202;63009;-53
2023/07/11 00:35:47;;;;;;;0.30;0.30;;;;;;;22.22;47.06;97109.34;29396;222;63005;-52
2023/07/11 00:36:18;;;;;;;0.30;0.30;;;;;;;22.21;47.14;97108.53;29396;245;63009;-53
2023/07/11 00:36:50;;;;;;;0.30;0.30;;;;;;;22.21;47.14;97108.53;29396;256;63007;-53
2023/07/11 00:37:21;;;;;;;0.30;0.30;;;;;;;22.21;47.45;97104.97;29396;234;63009;-53
2023/07/11 00:37:52;;;;;;;0.30;0.30;;;;;;;22.22;47.43;97114.88;29396;286;63005;-53
2023/07/11 00:38:24;;;;;;;0.30;0.30;;;;;;;22.23;47.28;97110.94;29396;205;63026;-53
2023/07/11 00:38:55;;;;;;;0.30;0.30;;;;;;;22.22;47.14;97114.88;29395;209;64009;-53
2023/07/11 00:39:29;;;;;;;0.35;0.35;;;;;;;22.23;47.16;97105.41;29396;218;63009;-53
2023/07/11 00:40:01;;;;;;;0.22;0.22;;;;;;;22.24;47.15;97112.53;29395;218;64009;-53
2023/07/11 00:40:32;;;;;;;0.30;0.30;;;;;;;22.24;47.15;97104.25;29396;254;63008;-52
2023/07/11 00:41:08;;;;;;;0.30;0.30;;;;;;;22.22;47.21;97103.81;29396;241;63009;-53
2023/07/11 00:41:39;;;;;;;0.30;0.30;;;;;;;22.22;47.38;97103.81;29395;197;64013;-52
2023/07/11 00:42:11;;;;;;;0.30;0.30;;;;;;;22.23;47.40;97105.41;29396;299;63005;-53
2023/07/11 00:42:42;;;;;;;0.30;0.30;;;;;;;22.22;47.23;97103.81;29396;226;63009;-52
2023/07/11 00:43:17;;;;;;;0.30;0.30;;;;;;;22.21;47.31;97103.00;29396;214;63009;-52
2023/07/11 00:43:48;;;;;;;0.30;0.30;;;;;;;22.22;47.07;97101.06;29396;210;63009;-54
2023/07/11 00:44:22;;;;;;;0.30;0.30;;;;;;;22.22;47.04;97103.81;29396;247;63005;-53
2023/07/11 00:45:03;;;;;;;0.30;0.30;;;;;;;22.20;47.25;97101.41;29396;206;63009;-53
2023/07/11 00:46:14;;;;;;;0.30;0.30;;;;;;;22.21;47.36;97104.97;29395;244;64009;-53
2023/07/11 00:46:45;;;;;;;0.30;0.30;;;;;;;22.20;47.22;97100.62;29396;226;63012;-53
2023/07/11 00:47:17;;;;;;;0.30;0.30;;;;;;;22.21;47.39;97102.22;29396;281;63004;-53
2023/07/11 00:47:48;;;;;;;0.30;0.30;;;;;;;22.20;47.09;97100.62;29396;224;63009;-53
2023/07/11 00:48:22;;;;;;;0.30;0.30;;;;;;;22.19;47.36;97099.81;29396;204;63004;-53
2023/07/11 00:48:57;;;;;;;0.30;0.30;;;;;;;22.18;47.21;97108.50;29396;240;63009;-53
2023/07/11 00:49:29;;;;;;;0.30;0.30;;;;;;;22.17;47.40;97104.13;29396;198;63008;-53
2023/07/11 00:50:06;;;;;;;0.30;0.30;;;;;;;22.16;47.21;97099.78;29396;224;63009;-53
2023/07/11 00:50:40;;;;;;;0.30;0.30;;;;;;;22.15;47.22;97106.47;29395;197;64000;-52
2023/07/11 00:51:14;;;;;;;0.30;0.30;;;;;;;22.14;47.23;97102.09;29396;204;63009;-53
2023/07/11 00:51:56;;;;;;;0.30;0.30;;;;;;;22.12;47.33;97101.66;29395;198;64009;-53
2023/07/11 00:52:28;;;;;;;0.30;0.30;;;;;;;22.12;47.42;97101.66;29396;310;63009;-53
2023/07/11 00:52:59;;;;;;;0.30;0.30;;;;;;;22.12;47.59;97107.19;29396;202;63005;-62
2023/07/11 00:53:31;;;;;;;0.30;0.30;;;;;;;22.11;47.31;97094.53;29398;220;63009;-53
2023/07/11 00:54:07;;;;;;;0.30;0.30;;;;;;;22.10;47.39;97099.25;29396;202;63004;-62
2023/07/11 00:54:40;;;;;;;0.30;0.30;;;;;;;22.09;47.58;97102.38;29396;225;63009;-53
2023/07/11 00:55:13;;;;;;;0.30;0.30;;;;;;;22.09;47.56;97099.59;29396;214;63004;-53
2023/07/11 00:55:45;;;;;;;0.30;0.30;;;;;;;22.06;47.76;97101.12;29396;216;63008;-54
2023/07/11 00:56:21;;;;;;;0.30;0.30;;;;;;;22.05;47.49;97100.34;29396;236;63004;-52
2023/07/11 00:56:58;;;;;;;0.30;0.30;;;;;;;22.05;47.75;97096.78;29395;197;64014;-53
2023/07/11 00:57:35;;;;;;;0.30;0.30;;;;;;;22.05;47.83;97096.78;29396;246;63005;-53
2023/07/11 00:58:06;;;;;;;0.30;0.30;;;;;;;22.04;47.53;97101.50;29396;204;63009;-53
2023/07/11 00:58:40;;;;;;;0.30;0.30;;;;;;;22.04;47.69;97100.69;29396;202;63005;-53
2023/07/11 00:59:14;;;;;;;0.30;0.30;;;;;;;22.03;47.55;97102.66;29396;249;63009;-52
2023/07/11 00:59:46;;;;;;;0.30;0.30;;;;;;;22.02;47.89;97094.72;29396;202;63005;-52
2023/07/11 01:00:18;;;;;;;0.30;0.30;;;;;;;22.01;47.78;97099.44;29396;198;63009;-53
2023/07/11 01:00:50;;;;;;;0.30;0.30;;;;;;;22.00;47.93;97097.81;29396;253;63015;-53
2023/07/11 01:01:22;;;;;;;0.30;0.30;;;;;;;22.00;47.56;97094.25;29396;196;63014;-53
2023/07/11 01:02:14;;;;;;;0.30;0.30;;;;;;;21.99;47.64;97101.75;29395;219;64009;-53
2023/07/11 01:02:45;;;;;;;0.30;0.30;;;;;;;21.99;47.85;97095.41;29396;197;63009;-53
2023/07/11 01:03:16;;;;;;;0.30;0.30;;;;;;;21.98;47.75;97093.81;29396;221;63008;-52
2023/07/11 01:03:51;;;;;;;0.30;0.30;;;;;;;21.98;47.71;97091.84;29396;224;63008;-53
2023/07/11 01:04:23;;;;;;;0.30;0.30;;;;;;;21.97;47.93;97086.69;29395;220;64009;-53
2023/07/11 01:04:55;;;;;;;0.30;0.30;;;;;;;21.96;47.80;97091.41;29396;197;63018;-54
2023/07/11 01:05:26;;;;;;;0.30;0.30;;;;;;;21.94;47.75;97090.97;29396;202;63012;-53
2023/07/11 01:05:58;;;;;;;0.30;0.30;;;;;;;21.95;47.96;97092.56;29396;299;63009;-53
2023/07/11 01:06:31;;;;;;;0.30;0.30;;;;;;;21.95;47.97;97094.53;29395;208;64009;-53
2023/07/11 01:07:04;;;;;;;0.30;0.30;;;;;;;21.93;48.08;97094.91;29396;268;63017;-52
2023/07/11 01:07:37;;;;;;;0.30;0.30;;;;;;;21.92;48.10;97096.06;29396;198;63015;-53
2023/07/11 01:08:10;;;;;;;0.30;0.30;;;;;;;21.92;47.88;97090.53;29396;202;63023;-52
2023/07/11 01:08:43;;;;;;;0.30;0.30;;;;;;;21.92;48.15;97090.53;29396;347;63005;-52
2023/07/11 01:09:14;;;;;;;0.30;0.30;;;;;;;21.92;48.10;97089.72;29396;209;63009;-52
2023/07/11 01:09:46;;;;;;;0.30;0.30;;;;;;;21.91;47.95;97086.16;29395;253;64004;-55
2023/07/11 01:10:17;;;;;;;0.30;0.30;;;;;;;21.91;47.99;97088.94;29396;265;63009;-53
2023/07/11 01:10:49;;;;;;;0.30;0.30;;;;;;;21.91;47.92;97088.94;29396;279;63000;-53
2023/07/11 01:11:22;;;;;;;0.30;0.30;;;;;;;21.90;47.92;97087.34;29396;218;63008;-53
2023/07/11 01:12:00;;;;;;;0.30;0.30;;;;;;;21.91;48.02;97088.13;29395;242;64009;-52
2023/07/11 01:12:35;;;;;;;0.30;0.30;;;;;;;21.90;47.92;97092.84;29396;212;63009;-52
2023/07/11 01:13:06;;;;;;;0.30;0.30;;;;;;;21.89;48.29;97085.72;29397;267;63005;-53
2023/07/11 01:13:37;;;;;;;0.30;0.30;;;;;;;21.90;48.00;97086.53;29397;259;63009;-53
2023/07/11 01:14:08;;;;;;;0.30;0.30;;;;;;;21.89;48.29;97085.72;29397;208;63019;-53
2023/07/11 01:14:43;;;;;;;0.30;0.30;;;;;;;21.89;48.21;97085.72;29397;215;63017;-52
2023/07/11 01:15:15;;;;;;;0.30;0.30;;;;;;;21.89;48.19;97084.94;29397;218;63004;-53
2023/07/11 01:15:47;;;;;;;0.30;0.30;;;;;;;21.87;48.02;97085.28;29397;259;63009;-52
2023/07/11 01:16:18;;;;;;;0.30;0.30;;;;;;;21.86;48.33;97091.97;29397;242;63004;-52
2023/07/11 01:16:49;;;;;;;0.30;0.30;;;;;;;21.85;48.22;97090.37;29394;196;64013;-53
2023/07/11 01:17:32;;;;;;;0.40;0.40;;;;;;;21.85;48.29;97079.31;29395;234;63004;-53
2023/07/11 01:18:03;;;;;;;0.30;0.30;;;;;;;21.85;48.31;97089.56;29395;202;63008;-53
2023/07/11 01:18:36;;;;;;;0.30;0.30;;;;;;;21.84;48.18;97083.25;29395;216;63004;-61
2023/07/11 01:19:07;;;;;;;0.30;0.30;;;;;;;21.84;48.05;97082.44;29395;203;63009;-63
2023/07/11 01:19:38;;;;;;;0.30;0.30;;;;;;;21.83;48.36;97087.16;29394;270;64005;-52
2023/07/11 01:20:12;;;;;;;0.30;0.30;;;;;;;21.82;47.98;97088.38;29395;282;63009;-53
2023/07/11 01:20:43;;;;;;;0.30;0.30;;;;;;;21.82;47.92;97084.78;29393;207;64009;-52
2023/07/11 01:21:17;;;;;;;0.30;0.30;;;;;;;21.81;47.88;97088.72;29395;252;63009;-53
2023/07/11 01:21:48;;;;;;;0.30;0.30;;;;;;;21.81;47.91;97084.00;29395;209;63005;-53
2023/07/11 01:22:20;;;;;;;0.30;0.30;;;;;;;21.80;47.79;97082.41;29395;225;63009;-53
2023/07/11 01:22:52;;;;;;;0.30;0.30;;;;;;;21.79;48.03;97080.78;29395;206;63004;-54
2023/07/11 01:23:25;;;;;;;0.30;0.30;;;;;;;21.79;47.99;97083.56;29395;267;63009;-53
2023/07/11 01:23:56;;;;;;;0.30;0.30;;;;;;;21.79;48.12;97080.78;29395;233;63004;-53
2023/07/11 01:24:30;;;;;;;0.30;0.30;;;;;;;21.79;47.90;97080.78;29393;244;64013;-53
2023/07/11 01:25:12;;;;;;;0.30;0.30;;;;;;;21.78;48.05;97079.19;29395;218;63004;-53
2023/07/11 01:25:44;;;;;;;0.30;0.30;;;;;;;21.78;47.91;97083.91;29395;227;63008;-53
2023/07/11 01:26:16;;;;;;;0.30;0.30;;;;;;;21.78;48.09;97083.91;29395;231;63005;-53
2023/07/11 01:26:47;;;;;;;0.30;0.30;;;;;;;21.78;48.13;97079.19;29393;214;64014;-52
2023/07/11 01:27:20;;;;;;;0.28;0.28;;;;;;;21.77;48.13;97083.13;29395;279;63005;-52
2023/07/11 01:27:51;;;;;;;0.30;0.30;;;;;;;21.78;47.81;97072.88;29395;202;63009;-54
2023/07/11 01:28:23;;;;;;;0.30;0.30;;;;;;;21.77;47.97;97077.59;29395;218;63015;-53
2023/07/11 01:28:54;;;;;;;0.30;0.30;;;;;;;21.78;48.05;97084.72;29395;262;63009;-53
2023/07/11 01:29:25;;;;;;;0.30;0.30;;;;;;;21.77;47.81;97083.13;29395;223;63010;-53
2023/07/11 01:29:56;;;;;;;0.30;0.30;;;;;;;21.78;48.07;97081.97;29393;328;64013;-53
2023/07/11 01:30:30;;;;;;;0.30;0.30;;;;;;;21.77;48.16;97083.13;29395;218;63004;-53
2023/07/11 01:31:03;;;;;;;0.30;0.30;;;;;;;21.77;48.12;97085.06;29395;220;63009;-52
2023/07/11 01:31:35;;;;;;;0.30;0.30;;;;;;;21.76;48.11;97081.50;29395;219;63004;-53
2023/07/11 01:32:07;;;;;;;0.30;0.30;;;;;;;21.76;48.26;97081.50;29393;239;64013;-53
2023/07/11 01:32:38;;;;;;;0.30;0.30;;;;;;;21.76;47.88;97089.00;29395;280;63004;-61
2023/07/11 01:33:10;;;;;;;0.30;0.30;;;;;;;21.76;47.94;97077.94;29395;222;63008;-63
2023/07/11 01:33:41;;;;;;;0.30;0.30;;;;;;;21.74;47.87;97084.63;29395;239;63005;-53
2023/07/11 01:34:12;;;;;;;0.30;0.30;;;;;;;21.75;47.83;97079.91;29395;219;63009;-53
2023/07/11 01:34:44;;;;;;;0.30;0.30;;;;;;;21.74;47.68;97083.84;29395;291;63005;-53
2023/07/11 01:35:16;;;;;;;0.22;0.22;;;;;;;21.73;48.04;97076.72;29395;199;63009;-52
2023/07/11 01:35:48;;;;;;;0.30;0.30;;;;;;;21.74;47.95;97083.84;29395;202;63005;-52
2023/07/11 01:36:20;;;;;;;0.30;0.30;;;;;;;21.73;48.14;97079.47;29395;244;63009;-53
2023/07/11 01:36:52;;;;;;;0.30;0.30;;;;;;;21.72;48.23;97080.63;29395;202;63005;-52
2023/07/11 01:37:23;;;;;;;0.30;0.30;;;;;;;21.71;47.88;97073.50;29393;283;64013;-51
2023/07/11 01:37:54;;;;;;;0.30;0.30;;;;;;;21.70;47.96;97078.22;29393;261;64004;-53
2023/07/11 01:38:26;;;;;;;0.30;0.30;;;;;;;21.69;48.12;97081.34;29393;220;64013;-53
2023/07/11 01:38:59;;;;;;;0.30;0.30;;;;;;;21.68;48.39;97072.25;29395;227;63004;-52
2023/07/11 01:39:31;;;;;;;0.30;0.30;;;;;;;21.67;48.14;97078.16;29395;199;63009;-52
2023/07/11 01:40:05;;;;;;;0.30;0.30;;;;;;;21.66;48.18;97071.81;29395;218;63004;-53
2023/07/11 01:40:36;;;;;;;0.30;0.30;;;;;;;21.67;48.39;97075.38;29395;328;63025;-52
2023/07/11 01:41:09;;;;;;;0.30;0.30;;;;;;;21.65;48.44;97074.94;29395;204;63005;-53
2023/07/11 01:41:43;;;;;;;0.30;0.30;;;;;;;21.63;48.17;97075.31;29395;199;63009;-52
2023/07/11 01:42:15;;;;;;;0.30;0.30;;;;;;;21.62;48.43;97070.12;29395;211;63005;-60
2023/07/11 01:42:46;;;;;;;0.30;0.30;;;;;;;21.59;48.50;97070.84;29395;199;63009;-53
2023/07/11 01:43:19;;;;;;;0.20;0.20;;;;;;;21.59;48.41;97076.38;29393;219;64009;-53
2023/07/11 01:43:52;;;;;;;0.30;0.30;;;;;;;21.56;48.36;97074.34;29395;269;63009;-53
2023/07/11 01:44:27;;;;;;;0.30;0.30;;;;;;;21.54;48.45;97079.41;29394;246;64005;-61
2023/07/11 01:44:58;;;;;;;0.30;0.30;;;;;;;21.53;48.54;97077.81;29395;227;63016;-52
2023/07/11 01:45:30;;;;;;;0.30;0.30;;;;;;;21.52;48.56;97077.00;29393;305;64009;-54
2023/07/11 01:46:02;;;;;;;0.30;0.30;;;;;;;21.51;48.85;97069.09;29395;292;63018;-53
2023/07/11 01:46:34;;;;;;;0.30;0.30;;;;;;;21.50;48.88;97075.75;29395;205;63004;-52
2023/07/11 01:47:07;;;;;;;0.30;0.30;;;;;;;21.51;48.58;97078.16;29395;242;63009;-53
2023/07/11 01:47:39;;;;;;;0.20;0.20;;;;;;;21.51;48.59;97077.38;29395;232;63004;-53
2023/07/11 01:48:10;;;;;;;0.30;0.30;;;;;;;21.51;48.72;97077.38;29395;288;63008;-53
2023/07/11 01:48:41;;;;;;;0.30;0.30;;;;;;;21.50;49.04;97073.00;29395;215;63005;-53
2023/07/11 01:49:13;;;;;;;0.30;0.30;;;;;;;21.48;49.14;97069.84;29393;251;64014;-62
2023/07/11 01:49:45;;;;;;;0.30;0.30;;;;;;;21.49;49.26;97068.66;29395;256;63005;-53
2023/07/11 01:50:18;;;;;;;0.20;0.20;;;;;;;21.47;48.90;97073.75;29395;222;63009;-64
2023/07/11 01:50:49;;;;;;;0.30;0.30;;;;;;;21.47;49.27;97068.22;29395;227;63005;-52
2023/07/11 01:51:20;;;;;;;0.30;0.30;;;;;;;21.45;49.10;97065.03;29395;233;63009;-52
2023/07/11 01:52:06;;;;;;;0.30;0.30;;;;;;;21.43;49.28;97067.34;29395;227;63005;-53
2023/07/11 01:52:38;;;;;;;0.30;0.30;;;;;;;21.39;49.63;97068.06;29394;197;64013;-52
2023/07/11 01:53:09;;;;;;;0.30;0.30;;;;;;;21.39;49.41;97070.03;29394;211;64009;-53
2023/07/11 01:53:40;;;;;;;0.50;0.50;;;;;;;21.37;49.71;97070.38;29395;204;63016;-53
2023/07/11 01:54:13;;;;;;;0.30;0.30;;;;;;;21.35;49.53;97072.69;29395;265;63004;-62
2023/07/11 01:54:45;;;;;;;0.30;0.30;;;;;;;21.33;49.95;97069.47;29394;197;64013;-52
2023/07/11 01:55:17;;;;;;;0.30;0.30;;;;;;;21.32;49.79;97056.84;29395;199;63004;-53
2023/07/11 01:56:01;;;;;;;0.30;0.30;;;;;;;21.29;49.85;97067.78;29395;234;63008;-60
2023/07/11 01:56:33;;;;;;;0.30;0.30;;;;;;;21.28;50.20;97066.19;29395;208;63005;-53
2023/07/11 01:57:07;;;;;;;0.30;0.30;;;;;;;21.27;49.95;97067.34;29395;202;63009;-53
2023/07/11 01:57:39;;;;;;;0.30;0.30;;;;;;;21.26;50.13;97071.28;29395;247;63005;-52
2023/07/11 01:58:10;;;;;;;0.30;0.30;;;;;;;21.24;50.17;97071.63;29395;321;63009;-52
2023/07/11 01:58:41;;;;;;;0.30;0.30;;;;;;;21.24;50.17;97065.31;29395;221;63005;-63
2023/07/11 01:59:12;;;;;;;0.30;0.30;;;;;;;21.23;50.26;97060.94;29395;329;63016;-52
2023/07/11 01:59:44;;;;;;;0.30;0.30;;;;;;;21.22;50.32;97068.41;29394;232;64009;-52
2023/07/11 02:00:16;;;;;;;0.30;0.30;;;;;;;21.20;50.47;97067.94;29395;213;63009;-53
2023/07/11 02:00:47;;;;;;;0.30;0.30;;;;;;;21.21;50.45;97066.81;29395;197;63004;-53
2023/07/11 02:01:19;;;;;;;0.30;0.30;;;;;;;21.20;50.40;97070.72;29394;258;64009;-54
2023/07/11 02:01:50;;;;;;;0.30;0.30;;;;;;;21.20;50.70;97070.72;29395;202;63004;-62
2023/07/11 02:02:22;;;;;;;0.30;0.30;;;;;;;21.19;50.79;97069.09;29395;213;63009;-53
2023/07/11 02:02:54;;;;;;;0.30;0.30;;;;;;;21.20;50.84;97069.91;29395;218;63004;-53
2023/07/11 02:03:26;;;;;;;0.30;0.30;;;;;;;21.19;50.75;97074.63;29395;219;63008;-53
2023/07/11 02:03:59;;;;;;;0.30;0.30;;;;;;;21.18;50.90;97073.03;29394;203;64009;-53
2023/07/11 02:04:33;;;;;;;0.30;0.30;;;;;;;21.17;50.72;97065.09;29394;219;64023;-53
2023/07/11 02:05:05;;;;;;;0.30;0.30;;;;;;;21.17;51.12;97070.62;29394;203;64005;-52
2023/07/11 02:05:36;;;;;;;0.30;0.30;;;;;;;21.18;51.28;97066.69;29394;246;64013;-53
2023/07/11 02:06:08;;;;;;;0.30;0.30;;;;;;;21.16;50.95;97069.81;29395;249;63005;-53
2023/07/11 02:06:39;;;;;;;0.30;0.30;;;;;;;21.17;50.90;97076.13;29395;238;63009;-53
2023/07/11 02:07:11;;;;;;;0.30;0.30;;;;;;;21.17;51.20;97070.62;29395;283;63005;-53
2023/07/11 02:07:42;;;;;;;0.30;0.30;;;;;;;21.18;50.86;97069.47;29395;221;63009;-63
2023/07/11 02:08:13;;;;;;;0.75;0.75;;;;;;;21.17;51.32;97065.91;29395;266;63011;-53
2023/07/11 02:08:44;;;;;;;0.37;0.37;;;;;;;21.18;50.90;97067.50;29395;257;63009;-52
2023/07/11 02:09:17;;;;;;;0.30;0.30;;;;;;;21.17;51.26;97065.91;29395;224;63004;-52
2023/07/11 02:09:48;;;;;;;0.30;0.30;;;;;;;21.19;51.32;97071.88;29395;250;63009;-61
2023/07/11 02:10:20;;;;;;;0.30;0.30;;;;;;;21.18;51.08;97067.50;29394;202;64008;-52
2023/07/11 02:10:51;;;;;;;0.30;0.30;;;;;;;21.18;51.00;97067.50;29395;254;63017;-52
2023/07/11 02:11:22;;;;;;;0.30;0.30;;;;;;;21.16;51.30;97067.06;29395;220;63005;-52
2023/07/11 02:11:54;;;;;;;0.30;0.30;;;;;;;21.17;51.34;97062.34;29395;227;63009;-51
2023/07/11 02:12:25;;;;;;;0.30;0.30;;;;;;;21.17;51.41;97065.09;29395;199;63005;-53
2023/07/11 02:12:56;;;;;;;0.35;0.35;;;;;;;21.17;51.18;97060.38;29395;218;63009;-52
2023/07/11 02:13:27;;;;;;;0.30;0.30;;;;;;;21.18;51.24;97067.50;29395;197;63005;-52
2023/07/11 02:13:58;;;;;;;0.30;0.30;;;;;;;21.19;51.17;97060.81;29395;248;63009;-52
2023/07/11 02:14:30;;;;;;;0.30;0.30;;;;;;;21.18;51.48;97067.50;29395;216;63004;-53
2023/07/11 02:15:02;;;;;;;0.30;0.30;;;;;;;21.17;51.20;97060.38;29395;224;63009;-53
2023/07/11 02:15:33;;;;;;;0.30;0.30;;;;;;;21.14;51.28;97055.56;29394;210;64009;-53
2023/07/11 02:16:06;;;;;;;0.30;0.30;;;;;;;21.13;51.23;97061.47;29395;206;63009;-53
2023/07/11 02:16:37;;;;;;;0.30;0.30;;;;;;;21.07;51.69;97055.44;29395;208;63004;-53
2023/07/11 02:17:09;;;;;;;0.30;0.30;;;;;;;21.07;51.51;97066.47;29395;197;63008;-53
2023/07/11 02:17:40;;;;;;;0.30;0.30;;;;;;;21.07;51.62;97060.94;29395;224;63004;-52
2023/07/11 02:18:11;;;;;;;0.30;0.30;;;;;;;21.06;51.81;97059.34;29395;203;63009;-53
2023/07/11 02:18:42;;;;;;;0.30;0.30;;;;;;;21.07;51.93;97060.94;29395;257;63005;-53
2023/07/11 02:19:16;;;;;;;0.30;0.30;;;;;;;21.08;51.71;97057.03;29395;207;63009;-52
2023/07/11 02:19:47;;;;;;;0.30;0.30;;;;;;;21.09;51.95;97061.38;29394;240;64009;-53
2023/07/11 02:20:18;;;;;;;0.30;0.30;;;;;;;21.07;51.68;97060.94;29395;254;63009;-52
2023/07/11 02:20:49;;;;;;;0.30;0.30;;;;;;;21.04;51.87;97056.94;29395;254;63005;-52
2023/07/11 02:21:21;;;;;;;0.30;0.30;;;;;;;21.03;51.86;97060.84;29395;221;63009;-63
2023/07/11 02:21:52;;;;;;;0.30;0.30;;;;;;;21.01;51.89;97062.38;29395;216;63005;-52
2023/07/11 02:22:24;;;;;;;0.30;0.30;;;;;;;20.99;52.20;97061.91;29395;252;63009;-53
2023/07/11 02:22:55;;;;;;;0.30;0.30;;;;;;;20.97;52.05;97061.47;29395;268;63004;-53
2023/07/11 02:23:28;;;;;;;0.30;0.30;;;;;;;20.96;52.19;97059.87;29395;202;63009;-53
2023/07/11 02:23:59;;;;;;;0.30;0.30;;;;;;;20.95;52.47;97055.50;29394;217;64009;-53
2023/07/11 02:24:31;;;;;;;0.30;0.30;;;;;;;20.95;52.32;97056.31;29395;217;63008;-53
2023/07/11 02:25:04;;;;;;;1.95;1.95;;;;;;;20.95;52.32;97058.25;29395;252;63015;-61
2023/07/11 02:25:35;;;;;;;0.30;0.30;;;;;;;20.94;52.31;97065.75;29394;206;64014;-53
2023/07/11 02:26:06;;;;;;;0.30;0.30;;;;;;;20.95;52.51;97055.50;29395;213;63015;-52
2023/07/11 02:26:38;;;;;;;0.30;0.30;;;;;;;20.93;52.49;97055.88;29395;249;63009;-52
2023/07/11 02:27:10;;;;;;;0.30;0.30;;;;;;;20.92;52.42;97058.97;29395;229;63005;-52
2023/07/11 02:27:41;;;;;;;0.30;0.30;;;;;;;20.91;52.36;97051.84;29395;291;63009;-61
2023/07/11 02:28:12;;;;;;;0.30;0.30;;;;;;;20.91;52.69;97057.38;29395;209;63005;-52
2023/07/11 02:28:43;;;;;;;0.30;0.30;;;;;;;20.89;52.77;97060.50;29395;271;63009;-53
2023/07/11 02:29:15;;;;;;;0.30;0.30;;;;;;;20.88;52.84;97058.09;29395;238;63005;-65
2023/07/11 02:29:46;;;;;;;0.30;0.30;;;;;;;20.87;52.78;97050.97;29394;247;64013;-52
2023/07/11 02:30:18;;;;;;;0.30;0.30;;;;;;;20.86;52.91;97054.88;29395;314;63004;-52
2023/07/11 02:30:49;;;;;;;0.30;0.30;;;;;;;20.85;52.78;97053.28;29395;237;63018;-61
2023/07/11 02:31:20;;;;;;;0.30;0.30;;;;;;;20.85;53.09;97053.28;29395;242;63010;-52
2023/07/11 02:31:54;;;;;;;0.70;0.70;;;;;;;20.83;52.92;97050.06;29394;196;64013;-52
2023/07/11 02:32:25;;;;;;;0.30;0.30;;;;;;;20.81;52.80;97046.88;29395;211;63009;-53
2023/07/11 02:32:57;;;;;;;0.30;0.30;;;;;;;20.80;53.19;97042.50;29395;283;63009;-52
2023/07/11 02:33:28;;;;;;;0.30;0.30;;;;;;;20.79;53.39;97057.47;29395;204;63005;-52
2023/07/11 02:34:00;;;;;;;0.30;0.30;;;;;;;20.77;53.45;97051.50;29395;199;63009;-53
2023/07/11 02:34:31;;;;;;;0.30;0.30;;;;;;;20.78;53.48;97048.41;29395;206;63005;-53
2023/07/11 02:35:03;;;;;;;0.30;0.30;;;;;;;20.78;53.04;97044.84;29394;269;64009;-52